AFR1649 LEBL-LFPG
Flight info
| Callsign | AFR1649 |
|---|---|
| Flight time | 1h 30m |
| Altitude | 38000 |
| Route | OLOXO DCT OKABI DCT TOU DCT POI DCT PEPAX UT182 KEPER |
| Aircraft | A321/M-SDE2E3FGIJ1RWY/HB1 |
Departure
| Time | 2026-05-06 13:01 |
|---|---|
| Airport | Josep Tarradellas Barcelona-El Prat Airport (LEBL) |
Arrival
| Time | 2026-05-06 14:31 |
|---|---|
| Airport | Charles de Gaulle International Airport (LFPG) |
| Time | Latitude | Longitude | Altitude | Speed | Heading |
|---|---|---|---|---|---|
| 2026-05-06 12:34 | 41.29044 | 2.08119 | 3 ft | 0 kts | 336° |
| 2026-05-06 12:52 | 41.29042 | 2.08120 | 3 ft | 2 kts | 336° |
| 2026-05-06 12:52 | 41.29017 | 2.08132 | 5 ft | 4 kts | 346° |
| 2026-05-06 12:52 | 41.28991 | 2.08137 | 3 ft | 4 kts | 7° |
| 2026-05-06 12:53 | 41.28969 | 2.08126 | 3 ft | 4 kts | 58° |
| 2026-05-06 12:53 | 41.28967 | 2.08121 | 3 ft | 0 kts | 65° |
| 2026-05-06 12:55 | 41.28971 | 2.08134 | 3 ft | 4 kts | 65° |
| 2026-05-06 12:55 | 41.28992 | 2.08194 | 3 ft | 10 kts | 65° |
| 2026-05-06 12:55 | 41.29029 | 2.08298 | 3 ft | 12 kts | 65° |
| 2026-05-06 12:56 | 41.29069 | 2.08385 | 4 ft | 11 kts | 39° |
| 2026-05-06 12:56 | 41.29145 | 2.08425 | 4 ft | 13 kts | 16° |
| 2026-05-06 12:56 | 41.29192 | 2.08473 | 3 ft | 6 kts | 104° |
| 2026-05-06 12:56 | 41.29159 | 2.08508 | 3 ft | 10 kts | 156° |
| 2026-05-06 12:57 | 41.29060 | 2.08567 | 6 ft | 19 kts | 155° |
| 2026-05-06 12:57 | 41.28946 | 2.08637 | 7 ft | 18 kts | 155° |
| 2026-05-06 12:57 | 41.28873 | 2.08740 | 4 ft | 16 kts | 81° |
| 2026-05-06 12:57 | 41.28917 | 2.08893 | 4 ft | 21 kts | 65° |
| 2026-05-06 12:58 | 41.28989 | 2.09098 | 3 ft | 27 kts | 65° |
| 2026-05-06 12:58 | 41.29065 | 2.09323 | 5 ft | 26 kts | 65° |
| 2026-05-06 12:58 | 41.29141 | 2.09544 | 3 ft | 26 kts | 66° |
| 2026-05-06 12:58 | 41.29213 | 2.09756 | 4 ft | 20 kts | 65° |
| 2026-05-06 12:59 | 41.29261 | 2.09893 | 3 ft | 12 kts | 65° |
| 2026-05-06 12:59 | 41.29281 | 2.09995 | 3 ft | 11 kts | 94° |
| 2026-05-06 12:59 | 41.29256 | 2.10091 | 4 ft | 11 kts | 112° |
| 2026-05-06 12:59 | 41.29231 | 2.10179 | 6 ft | 9 kts | 114° |
| 2026-05-06 13:00 | 41.29170 | 2.10161 | 5 ft | 18 kts | 238° |
| 2026-05-06 13:00 | 41.29052 | 2.09843 | 8 ft | 72 kts | 245° |
| 2026-05-06 13:00 | 41.28748 | 2.08957 | 7 ft | 135 kts | 245° |
| 2026-05-06 13:00 | 41.28298 | 2.07675 | 277 ft | 158 kts | 243° |
| 2026-05-06 13:01 | 41.27734 | 2.06454 | 981 ft | 155 kts | 217° |
| 2026-05-06 13:01 | 41.26725 | 2.05903 | 1470 ft | 167 kts | 193° |
| 2026-05-06 13:01 | 41.25514 | 2.05580 | 1797 ft | 188 kts | 190° |
| 2026-05-06 13:01 | 41.24152 | 2.05252 | 2158 ft | 209 kts | 190° |
| 2026-05-06 13:02 | 41.22710 | 2.04892 | 2922 ft | 212 kts | 191° |
| 2026-05-06 13:02 | 41.21252 | 2.04502 | 3696 ft | 216 kts | 192° |
| 2026-05-06 13:02 | 41.19770 | 2.04078 | 4498 ft | 220 kts | 193° |
| 2026-05-06 13:02 | 41.18276 | 2.03594 | 5265 ft | 226 kts | 200° |
| 2026-05-06 13:03 | 41.17042 | 2.02272 | 5836 ft | 237 kts | 241° |
| 2026-05-06 13:03 | 41.16722 | 2.00136 | 6600 ft | 244 kts | 278° |
| 2026-05-06 13:03 | 41.17444 | 1.98138 | 7401 ft | 250 kts | 308° |
| 2026-05-06 13:03 | 41.18581 | 1.96380 | 8277 ft | 252 kts | 310° |
| 2026-05-06 13:04 | 41.19758 | 1.94646 | 9120 ft | 254 kts | 310° |
| 2026-05-06 13:04 | 41.20947 | 1.92892 | 9942 ft | 256 kts | 309° |
| 2026-05-06 13:04 | 41.22137 | 1.91117 | 10758 ft | 259 kts | 311° |
| 2026-05-06 13:04 | 41.23551 | 1.89574 | 11371 ft | 274 kts | 325° |
| 2026-05-06 13:05 | 41.25243 | 1.88191 | 11637 ft | 298 kts | 326° |
| 2026-05-06 13:05 | 41.27075 | 1.86691 | 11860 ft | 321 kts | 326° |
| 2026-05-06 13:05 | 41.29023 | 1.85086 | 12302 ft | 334 kts | 326° |
| 2026-05-06 13:05 | 41.31015 | 1.83445 | 12997 ft | 340 kts | 325° |
| 2026-05-06 13:06 | 41.33036 | 1.81780 | 13734 ft | 344 kts | 325° |
| 2026-05-06 13:06 | 41.34413 | 1.80644 | 14231 ft | 346 kts | 325° |
| 2026-05-06 13:06 | 41.36441 | 1.78966 | 14932 ft | 349 kts | 324° |
| 2026-05-06 13:06 | 41.38514 | 1.77246 | 15621 ft | 353 kts | 324° |
| 2026-05-06 13:07 | 41.40634 | 1.75484 | 16302 ft | 357 kts | 324° |
| 2026-05-06 13:07 | 41.42749 | 1.73723 | 16954 ft | 360 kts | 324° |
| 2026-05-06 13:07 | 41.44855 | 1.71969 | 17588 ft | 363 kts | 324° |
| 2026-05-06 13:07 | 41.47007 | 1.70174 | 18191 ft | 367 kts | 324° |
| 2026-05-06 13:08 | 41.49180 | 1.68361 | 18786 ft | 370 kts | 323° |
| 2026-05-06 13:08 | 41.51455 | 1.66678 | 19349 ft | 378 kts | 331° |
| 2026-05-06 13:08 | 41.53978 | 1.65549 | 19887 ft | 389 kts | 342° |
| 2026-05-06 13:08 | 41.56684 | 1.65014 | 20398 ft | 396 kts | 348° |
| 2026-05-06 13:09 | 41.59442 | 1.64593 | 20888 ft | 401 kts | 348° |
| 2026-05-06 13:09 | 41.62222 | 1.64163 | 21362 ft | 404 kts | 347° |
| 2026-05-06 13:09 | 41.65031 | 1.63722 | 21811 ft | 408 kts | 347° |
| 2026-05-06 13:09 | 41.67864 | 1.63275 | 22235 ft | 412 kts | 347° |
| 2026-05-06 13:10 | 41.70727 | 1.62824 | 22643 ft | 416 kts | 347° |
| 2026-05-06 13:10 | 41.73613 | 1.62370 | 23056 ft | 420 kts | 346° |
| 2026-05-06 13:10 | 41.76529 | 1.61911 | 23470 ft | 423 kts | 346° |
| 2026-05-06 13:10 | 41.79461 | 1.61447 | 23872 ft | 427 kts | 346° |
| 2026-05-06 13:11 | 41.82427 | 1.60978 | 24258 ft | 431 kts | 346° |
| 2026-05-06 13:11 | 41.85410 | 1.60506 | 24676 ft | 434 kts | 346° |
| 2026-05-06 13:11 | 41.88417 | 1.60033 | 25094 ft | 437 kts | 346° |
| 2026-05-06 13:11 | 41.91432 | 1.59561 | 25510 ft | 440 kts | 346° |
| 2026-05-06 13:12 | 41.94486 | 1.59085 | 25930 ft | 442 kts | 346° |
| 2026-05-06 13:12 | 41.97558 | 1.58605 | 26349 ft | 445 kts | 346° |
| 2026-05-06 13:12 | 42.00647 | 1.58119 | 26760 ft | 448 kts | 346° |
| 2026-05-06 13:12 | 42.03752 | 1.57629 | 27179 ft | 450 kts | 346° |
| 2026-05-06 13:13 | 42.06863 | 1.57138 | 27591 ft | 452 kts | 346° |
| 2026-05-06 13:13 | 42.09998 | 1.56642 | 27975 ft | 454 kts | 346° |
| 2026-05-06 13:13 | 42.13138 | 1.56141 | 28340 ft | 456 kts | 346° |
| 2026-05-06 13:13 | 42.16305 | 1.55632 | 28683 ft | 459 kts | 346° |
| 2026-05-06 13:14 | 42.19483 | 1.55118 | 29012 ft | 461 kts | 346° |
| 2026-05-06 13:14 | 42.22676 | 1.54604 | 29303 ft | 463 kts | 346° |
| 2026-05-06 13:14 | 42.25888 | 1.54092 | 29615 ft | 466 kts | 346° |
| 2026-05-06 13:14 | 42.29069 | 1.53587 | 29965 ft | 468 kts | 346° |
| 2026-05-06 13:15 | 42.32305 | 1.53075 | 30303 ft | 469 kts | 346° |
| 2026-05-06 13:15 | 42.35559 | 1.52559 | 30616 ft | 471 kts | 346° |
| 2026-05-06 13:15 | 42.38820 | 1.52040 | 30915 ft | 473 kts | 346° |
| 2026-05-06 13:15 | 42.42100 | 1.51514 | 31202 ft | 475 kts | 346° |
| 2026-05-06 13:16 | 42.45371 | 1.50988 | 31618 ft | 473 kts | 346° |
| 2026-05-06 13:16 | 42.48640 | 1.50462 | 32029 ft | 472 kts | 346° |
| 2026-05-06 13:16 | 42.51900 | 1.49940 | 32409 ft | 471 kts | 346° |
| 2026-05-06 13:16 | 42.55151 | 1.49416 | 32742 ft | 470 kts | 346° |
| 2026-05-06 13:17 | 42.58396 | 1.48893 | 33099 ft | 470 kts | 346° |
| 2026-05-06 13:17 | 42.61637 | 1.48375 | 33490 ft | 468 kts | 346° |
| 2026-05-06 13:17 | 42.64876 | 1.47857 | 33817 ft | 468 kts | 346° |
| 2026-05-06 13:17 | 42.68111 | 1.47337 | 34132 ft | 468 kts | 346° |
| 2026-05-06 13:18 | 42.71335 | 1.46818 | 34490 ft | 467 kts | 347° |
| 2026-05-06 13:18 | 42.74559 | 1.46297 | 34843 ft | 466 kts | 347° |
| 2026-05-06 13:18 | 42.77787 | 1.45775 | 35173 ft | 466 kts | 347° |
| 2026-05-06 13:18 | 42.80999 | 1.45254 | 35479 ft | 465 kts | 347° |
| 2026-05-06 13:19 | 42.84216 | 1.44735 | 35789 ft | 464 kts | 347° |
| 2026-05-06 13:19 | 42.87419 | 1.44220 | 36074 ft | 464 kts | 347° |
| 2026-05-06 13:19 | 42.90625 | 1.43702 | 36363 ft | 464 kts | 347° |
| 2026-05-06 13:19 | 42.93825 | 1.43183 | 36628 ft | 463 kts | 347° |
| 2026-05-06 13:20 | 42.97030 | 1.42662 | 36867 ft | 463 kts | 347° |
| 2026-05-06 13:20 | 43.00229 | 1.42144 | 37122 ft | 463 kts | 348° |
| 2026-05-06 13:20 | 43.03422 | 1.41628 | 37379 ft | 462 kts | 348° |
| 2026-05-06 13:20 | 43.06615 | 1.41109 | 37626 ft | 461 kts | 348° |
| 2026-05-06 13:21 | 43.09796 | 1.40589 | 37857 ft | 460 kts | 348° |
| 2026-05-06 13:21 | 43.16106 | 1.39551 | 37956 ft | 458 kts | 348° |
| 2026-05-06 13:22 | 43.22469 | 1.38519 | 37961 ft | 457 kts | 348° |
| 2026-05-06 13:22 | 43.28728 | 1.37493 | 37956 ft | 456 kts | 348° |
| 2026-05-06 13:23 | 43.35020 | 1.36456 | 37960 ft | 455 kts | 348° |
| 2026-05-06 13:23 | 43.41310 | 1.35427 | 37973 ft | 455 kts | 348° |
| 2026-05-06 13:24 | 43.47605 | 1.34401 | 37981 ft | 456 kts | 348° |
| 2026-05-06 13:24 | 43.53903 | 1.33357 | 37981 ft | 456 kts | 348° |
| 2026-05-06 13:25 | 43.60201 | 1.32304 | 37986 ft | 456 kts | 348° |
| 2026-05-06 13:25 | 43.66511 | 1.31250 | 37989 ft | 457 kts | 348° |
| 2026-05-06 13:26 | 43.72669 | 1.29462 | 37987 ft | 452 kts | 341° |
| 2026-05-06 13:26 | 43.78791 | 1.27432 | 37991 ft | 452 kts | 341° |
| 2026-05-06 13:27 | 43.84912 | 1.25410 | 37992 ft | 452 kts | 342° |
| 2026-05-06 13:27 | 43.91031 | 1.23372 | 37994 ft | 452 kts | 341° |
| 2026-05-06 13:28 | 43.97149 | 1.21321 | 37995 ft | 452 kts | 341° |
| 2026-05-06 13:28 | 44.03260 | 1.19279 | 37992 ft | 452 kts | 342° |
| 2026-05-06 13:29 | 44.09365 | 1.17230 | 37988 ft | 452 kts | 342° |
| 2026-05-06 13:29 | 44.15475 | 1.15177 | 37985 ft | 451 kts | 342° |
| 2026-05-06 13:30 | 44.21579 | 1.13121 | 37984 ft | 451 kts | 342° |
| 2026-05-06 13:30 | 44.27675 | 1.11061 | 37980 ft | 451 kts | 342° |
| 2026-05-06 13:31 | 44.33776 | 1.08990 | 37977 ft | 451 kts | 342° |
| 2026-05-06 13:31 | 44.39865 | 1.06922 | 37978 ft | 451 kts | 342° |
| 2026-05-06 13:32 | 44.45960 | 1.04852 | 37978 ft | 451 kts | 342° |
| 2026-05-06 13:32 | 44.52058 | 1.02781 | 37978 ft | 451 kts | 342° |
| 2026-05-06 13:33 | 44.58143 | 1.00695 | 37974 ft | 450 kts | 342° |
| 2026-05-06 13:33 | 44.64235 | 0.98617 | 37978 ft | 450 kts | 343° |
| 2026-05-06 13:34 | 44.70317 | 0.96543 | 37958 ft | 450 kts | 342° |
| 2026-05-06 13:34 | 44.76407 | 0.94446 | 37967 ft | 450 kts | 343° |
| 2026-05-06 13:35 | 44.82455 | 0.92366 | 37975 ft | 450 kts | 343° |
| 2026-05-06 13:35 | 44.88540 | 0.90266 | 37971 ft | 450 kts | 343° |
| 2026-05-06 13:36 | 44.94618 | 0.88168 | 37962 ft | 450 kts | 343° |
| 2026-05-06 13:36 | 45.00705 | 0.86049 | 37965 ft | 450 kts | 343° |
| 2026-05-06 13:37 | 45.06773 | 0.83932 | 37957 ft | 450 kts | 343° |
| 2026-05-06 13:37 | 45.12857 | 0.81816 | 37946 ft | 450 kts | 343° |
| 2026-05-06 13:38 | 45.18938 | 0.79695 | 37953 ft | 450 kts | 343° |
| 2026-05-06 13:38 | 45.25017 | 0.77571 | 37953 ft | 450 kts | 343° |
| 2026-05-06 13:39 | 45.31098 | 0.75455 | 37947 ft | 450 kts | 343° |
| 2026-05-06 13:39 | 45.37168 | 0.73328 | 37947 ft | 449 kts | 343° |
| 2026-05-06 13:40 | 45.43239 | 0.71196 | 37945 ft | 449 kts | 343° |
| 2026-05-06 13:40 | 45.49272 | 0.69062 | 37944 ft | 449 kts | 343° |
| 2026-05-06 13:41 | 45.55377 | 0.66891 | 37947 ft | 449 kts | 343° |
| 2026-05-06 13:41 | 45.61440 | 0.64738 | 37948 ft | 449 kts | 343° |
| 2026-05-06 13:42 | 45.67462 | 0.62601 | 37952 ft | 449 kts | 343° |
| 2026-05-06 13:42 | 45.73525 | 0.60450 | 37943 ft | 449 kts | 344° |
| 2026-05-06 13:43 | 45.79579 | 0.58290 | 37949 ft | 449 kts | 344° |
| 2026-05-06 13:43 | 45.85637 | 0.56120 | 37951 ft | 449 kts | 344° |
| 2026-05-06 13:44 | 45.91694 | 0.53956 | 37948 ft | 449 kts | 344° |
| 2026-05-06 13:44 | 45.97751 | 0.51799 | 37948 ft | 448 kts | 344° |
| 2026-05-06 13:45 | 46.03800 | 0.49617 | 37943 ft | 448 kts | 344° |
| 2026-05-06 13:45 | 46.12874 | 0.46332 | 37955 ft | 448 kts | 344° |
| 2026-05-06 13:46 | 46.18913 | 0.44148 | 37944 ft | 447 kts | 344° |
| 2026-05-06 13:46 | 46.24950 | 0.41958 | 37949 ft | 447 kts | 344° |
| 2026-05-06 13:47 | 46.30986 | 0.39760 | 37956 ft | 447 kts | 344° |
| 2026-05-06 13:47 | 46.37013 | 0.37558 | 37959 ft | 447 kts | 344° |
| 2026-05-06 13:48 | 46.43043 | 0.35358 | 37967 ft | 447 kts | 344° |
| 2026-05-06 13:48 | 46.49056 | 0.33174 | 37923 ft | 442 kts | 344° |
| 2026-05-06 13:49 | 46.55060 | 0.31033 | 37931 ft | 446 kts | 348° |
| 2026-05-06 13:49 | 46.61261 | 0.30833 | 37940 ft | 450 kts | 8° |
| 2026-05-06 13:50 | 46.67395 | 0.32679 | 37944 ft | 451 kts | 11° |
| 2026-05-06 13:50 | 46.73542 | 0.34572 | 37946 ft | 452 kts | 10° |
| 2026-05-06 13:51 | 46.79696 | 0.36451 | 37958 ft | 452 kts | 10° |
| 2026-05-06 13:51 | 46.85853 | 0.38330 | 37954 ft | 452 kts | 11° |
| 2026-05-06 13:52 | 46.92009 | 0.40236 | 37978 ft | 452 kts | 11° |
| 2026-05-06 13:52 | 46.98167 | 0.42156 | 37979 ft | 452 kts | 11° |
| 2026-05-06 13:53 | 47.03284 | 0.43749 | 37977 ft | 452 kts | 11° |
| 2026-05-06 13:53 | 47.09505 | 0.44717 | 37965 ft | 449 kts | 355° |
| 2026-05-06 13:54 | 47.16687 | 0.43193 | 37649 ft | 452 kts | 349° |
| 2026-05-06 13:54 | 47.19768 | 0.42446 | 37395 ft | 445 kts | 349° |
| 2026-05-06 13:54 | 47.22803 | 0.41708 | 37145 ft | 440 kts | 349° |
| 2026-05-06 13:55 | 47.25807 | 0.40973 | 36897 ft | 436 kts | 349° |
| 2026-05-06 13:55 | 47.27827 | 0.40476 | 36729 ft | 434 kts | 349° |
| 2026-05-06 13:55 | 47.30790 | 0.39739 | 36479 ft | 430 kts | 349° |
| 2026-05-06 13:55 | 47.33699 | 0.39022 | 36232 ft | 428 kts | 349° |
| 2026-05-06 13:56 | 47.36620 | 0.38303 | 35982 ft | 425 kts | 350° |
| 2026-05-06 13:56 | 47.39532 | 0.37590 | 35734 ft | 425 kts | 350° |
| 2026-05-06 13:56 | 47.42466 | 0.36876 | 35480 ft | 428 kts | 350° |
| 2026-05-06 13:56 | 47.45405 | 0.36159 | 35140 ft | 429 kts | 350° |
| 2026-05-06 13:57 | 47.48376 | 0.35431 | 34341 ft | 434 kts | 350° |
| 2026-05-06 13:57 | 47.51320 | 0.34707 | 34081 ft | 423 kts | 351° |
| 2026-05-06 13:57 | 47.54193 | 0.33995 | 33727 ft | 416 kts | 350° |
| 2026-05-06 13:57 | 47.57031 | 0.33283 | 33161 ft | 413 kts | 351° |
| 2026-05-06 13:58 | 47.59905 | 0.32559 | 32179 ft | 423 kts | 351° |
| 2026-05-06 13:58 | 47.62823 | 0.31828 | 31299 ft | 427 kts | 351° |
| 2026-05-06 13:58 | 47.65744 | 0.31099 | 30696 ft | 425 kts | 351° |
| 2026-05-06 13:58 | 47.68647 | 0.30377 | 30150 ft | 420 kts | 351° |
| 2026-05-06 13:59 | 47.71505 | 0.29668 | 29612 ft | 415 kts | 351° |
| 2026-05-06 13:59 | 47.74332 | 0.28964 | 29082 ft | 409 kts | 351° |
| 2026-05-06 13:59 | 47.77139 | 0.28585 | 28556 ft | 403 kts | 1° |
| 2026-05-06 13:59 | 47.79911 | 0.29002 | 28041 ft | 397 kts | 12° |
| 2026-05-06 14:00 | 47.82532 | 0.30166 | 27679 ft | 391 kts | 22° |
| 2026-05-06 14:00 | 47.84963 | 0.31989 | 27395 ft | 392 kts | 32° |
| 2026-05-06 14:00 | 47.87206 | 0.34291 | 27079 ft | 392 kts | 34° |
| 2026-05-06 14:00 | 47.89433 | 0.36617 | 26766 ft | 390 kts | 34° |
| 2026-05-06 14:01 | 47.91652 | 0.38937 | 26457 ft | 389 kts | 34° |
| 2026-05-06 14:01 | 47.93868 | 0.41257 | 26148 ft | 388 kts | 34° |
| 2026-05-06 14:01 | 47.96068 | 0.43563 | 25845 ft | 387 kts | 34° |
| 2026-05-06 14:01 | 47.98272 | 0.45871 | 25554 ft | 386 kts | 35° |
| 2026-05-06 14:02 | 48.00466 | 0.48168 | 25244 ft | 385 kts | 34° |
| 2026-05-06 14:02 | 48.02628 | 0.50436 | 24947 ft | 384 kts | 35° |
| 2026-05-06 14:02 | 48.04841 | 0.52765 | 24635 ft | 383 kts | 35° |
| 2026-05-06 14:02 | 48.07014 | 0.55056 | 24345 ft | 382 kts | 35° |
| 2026-05-06 14:03 | 48.09156 | 0.57318 | 24049 ft | 381 kts | 35° |
| 2026-05-06 14:03 | 48.11318 | 0.59601 | 23759 ft | 380 kts | 35° |
| 2026-05-06 14:03 | 48.13473 | 0.61877 | 23458 ft | 378 kts | 35° |
| 2026-05-06 14:03 | 48.15618 | 0.64148 | 23160 ft | 377 kts | 35° |
| 2026-05-06 14:04 | 48.17753 | 0.66409 | 22867 ft | 375 kts | 35° |
| 2026-05-06 14:04 | 48.19883 | 0.68667 | 22575 ft | 374 kts | 35° |
| 2026-05-06 14:04 | 48.22002 | 0.70917 | 22284 ft | 373 kts | 35° |
| 2026-05-06 14:04 | 48.24115 | 0.73164 | 21989 ft | 371 kts | 35° |
| 2026-05-06 14:05 | 48.26212 | 0.75395 | 21693 ft | 369 kts | 35° |
| 2026-05-06 14:05 | 48.28304 | 0.77628 | 21403 ft | 368 kts | 36° |
| 2026-05-06 14:05 | 48.30386 | 0.79856 | 21112 ft | 367 kts | 35° |
| 2026-05-06 14:05 | 48.32438 | 0.82107 | 20825 ft | 365 kts | 39° |
| 2026-05-06 14:06 | 48.34271 | 0.84735 | 20541 ft | 364 kts | 49° |
| 2026-05-06 14:06 | 48.35783 | 0.87767 | 20257 ft | 362 kts | 58° |
| 2026-05-06 14:06 | 48.36986 | 0.91090 | 19976 ft | 362 kts | 63° |
| 2026-05-06 14:06 | 48.38140 | 0.94441 | 19687 ft | 359 kts | 62° |
| 2026-05-06 14:07 | 48.39287 | 0.97766 | 19409 ft | 357 kts | 62° |
| 2026-05-06 14:07 | 48.40439 | 1.01072 | 19131 ft | 357 kts | 62° |
| 2026-05-06 14:07 | 48.41590 | 1.04380 | 18844 ft | 355 kts | 62° |
| 2026-05-06 14:07 | 48.42734 | 1.07656 | 18490 ft | 354 kts | 62° |
| 2026-05-06 14:08 | 48.43865 | 1.10937 | 18160 ft | 352 kts | 63° |
| 2026-05-06 14:08 | 48.44988 | 1.14209 | 17823 ft | 351 kts | 63° |
| 2026-05-06 14:08 | 48.46102 | 1.17462 | 17483 ft | 349 kts | 63° |
| 2026-05-06 14:08 | 48.47212 | 1.20705 | 17164 ft | 347 kts | 63° |
| 2026-05-06 14:09 | 48.48359 | 1.24057 | 16820 ft | 372 kts | 63° |
| 2026-05-06 14:09 | 48.49555 | 1.27563 | 16450 ft | 378 kts | 63° |
| 2026-05-06 14:09 | 48.50759 | 1.31086 | 16098 ft | 378 kts | 63° |
| 2026-05-06 14:09 | 48.51960 | 1.34599 | 15785 ft | 376 kts | 63° |
| 2026-05-06 14:10 | 48.53158 | 1.38092 | 15630 ft | 376 kts | 62° |
| 2026-05-06 14:10 | 48.54365 | 1.41600 | 15431 ft | 375 kts | 62° |
| 2026-05-06 14:10 | 48.55561 | 1.45080 | 15233 ft | 374 kts | 63° |
| 2026-05-06 14:10 | 48.56776 | 1.48553 | 15040 ft | 373 kts | 59° |
| 2026-05-06 14:11 | 48.58286 | 1.51708 | 14830 ft | 371 kts | 48° |
| 2026-05-06 14:11 | 48.60110 | 1.54455 | 14595 ft | 370 kts | 43° |
| 2026-05-06 14:11 | 48.61970 | 1.57143 | 14366 ft | 369 kts | 43° |
| 2026-05-06 14:11 | 48.63823 | 1.59822 | 14124 ft | 368 kts | 43° |
| 2026-05-06 14:12 | 48.65667 | 1.62496 | 13901 ft | 367 kts | 43° |
| 2026-05-06 14:12 | 48.67500 | 1.65163 | 13677 ft | 366 kts | 43° |
| 2026-05-06 14:12 | 48.69329 | 1.67836 | 13432 ft | 364 kts | 43° |
| 2026-05-06 14:12 | 48.71146 | 1.70491 | 13221 ft | 363 kts | 43° |
| 2026-05-06 14:13 | 48.72966 | 1.73146 | 12979 ft | 362 kts | 43° |
| 2026-05-06 14:13 | 48.74772 | 1.75786 | 12747 ft | 361 kts | 43° |
| 2026-05-06 14:13 | 48.76576 | 1.78427 | 12530 ft | 360 kts | 43° |
| 2026-05-06 14:13 | 48.78354 | 1.81030 | 12312 ft | 349 kts | 43° |
| 2026-05-06 14:14 | 48.80061 | 1.83533 | 12189 ft | 333 kts | 43° |
| 2026-05-06 14:14 | 48.81699 | 1.85941 | 11824 ft | 324 kts | 43° |
| 2026-05-06 14:14 | 48.83304 | 1.88304 | 11673 ft | 320 kts | 43° |
| 2026-05-06 14:14 | 48.84903 | 1.90654 | 11493 ft | 320 kts | 43° |
| 2026-05-06 14:15 | 48.86469 | 1.93042 | 11285 ft | 319 kts | 48° |
| 2026-05-06 14:15 | 48.87754 | 1.95779 | 11089 ft | 318 kts | 59° |
| 2026-05-06 14:15 | 48.88640 | 1.98761 | 10879 ft | 301 kts | 71° |
| 2026-05-06 14:15 | 48.89119 | 2.01807 | 10596 ft | 292 kts | 82° |
| 2026-05-06 14:16 | 48.89302 | 2.04891 | 10502 ft | 294 kts | 85° |
| 2026-05-06 14:16 | 48.89475 | 2.07982 | 10333 ft | 294 kts | 84° |
| 2026-05-06 14:16 | 48.89654 | 2.11078 | 10183 ft | 294 kts | 84° |
| 2026-05-06 14:16 | 48.89831 | 2.14172 | 10066 ft | 294 kts | 84° |
| 2026-05-06 14:17 | 48.90004 | 2.17210 | 9922 ft | 293 kts | 84° |
| 2026-05-06 14:17 | 48.90179 | 2.20268 | 9736 ft | 292 kts | 84° |
| 2026-05-06 14:17 | 48.90355 | 2.23341 | 9546 ft | 291 kts | 84° |
| 2026-05-06 14:17 | 48.90531 | 2.26404 | 9360 ft | 290 kts | 84° |
| 2026-05-06 14:18 | 48.90704 | 2.29459 | 9175 ft | 290 kts | 84° |
| 2026-05-06 14:18 | 48.90876 | 2.32509 | 8988 ft | 289 kts | 84° |
| 2026-05-06 14:18 | 48.91046 | 2.35554 | 8802 ft | 289 kts | 84° |
| 2026-05-06 14:18 | 48.91212 | 2.38576 | 8620 ft | 288 kts | 84° |
| 2026-05-06 14:19 | 48.91379 | 2.41603 | 8439 ft | 287 kts | 84° |
| 2026-05-06 14:19 | 48.91546 | 2.44619 | 8256 ft | 286 kts | 84° |
| 2026-05-06 14:19 | 48.91685 | 2.47597 | 8077 ft | 277 kts | 86° |
| 2026-05-06 14:19 | 48.91745 | 2.50502 | 7784 ft | 274 kts | 88° |
| 2026-05-06 14:20 | 48.91770 | 2.53370 | 7700 ft | 272 kts | 88° |
| 2026-05-06 14:20 | 48.91785 | 2.56247 | 7541 ft | 270 kts | 88° |
| 2026-05-06 14:20 | 48.91795 | 2.59043 | 7399 ft | 259 kts | 88° |
| 2026-05-06 14:20 | 48.91801 | 2.61721 | 7253 ft | 250 kts | 88° |
| 2026-05-06 14:21 | 48.91804 | 2.64334 | 7022 ft | 243 kts | 88° |
| 2026-05-06 14:21 | 48.91804 | 2.66848 | 6779 ft | 235 kts | 88° |
| 2026-05-06 14:21 | 48.91797 | 2.69316 | 6537 ft | 232 kts | 88° |
| 2026-05-06 14:21 | 48.91789 | 2.71765 | 6285 ft | 231 kts | 88° |
| 2026-05-06 14:22 | 48.91778 | 2.74170 | 6054 ft | 225 kts | 88° |
| 2026-05-06 14:22 | 48.91761 | 2.76507 | 5853 ft | 217 kts | 88° |
| 2026-05-06 14:22 | 48.91741 | 2.78776 | 5645 ft | 212 kts | 88° |
| 2026-05-06 14:22 | 48.91722 | 2.80959 | 5447 ft | 207 kts | 88° |
| 2026-05-06 14:23 | 48.91705 | 2.83153 | 5246 ft | 203 kts | 88° |
| 2026-05-06 14:23 | 48.91699 | 2.85245 | 5051 ft | 198 kts | 83° |
| 2026-05-06 14:23 | 48.91944 | 2.87278 | 4860 ft | 194 kts | 73° |
| 2026-05-06 14:23 | 48.92280 | 2.89267 | 4657 ft | 194 kts | 72° |
| 2026-05-06 14:24 | 48.92652 | 2.91231 | 4461 ft | 192 kts | 64° |
| 2026-05-06 14:24 | 48.93417 | 2.92846 | 4291 ft | 188 kts | 45° |
| 2026-05-06 14:24 | 48.94357 | 2.94224 | 4157 ft | 187 kts | 33° |
| 2026-05-06 14:24 | 48.95558 | 2.94863 | 4074 ft | 183 kts | 1° |
| 2026-05-06 14:25 | 48.96760 | 2.94663 | 3998 ft | 168 kts | 349° |
| 2026-05-06 14:25 | 48.97894 | 2.94314 | 4014 ft | 163 kts | 348° |
| 2026-05-06 14:25 | 48.98994 | 2.93949 | 4013 ft | 161 kts | 345° |
| 2026-05-06 14:25 | 48.99993 | 2.93186 | 4005 ft | 162 kts | 322° |
| 2026-05-06 14:26 | 49.00711 | 2.91871 | 4007 ft | 164 kts | 299° |
| 2026-05-06 14:26 | 49.01015 | 2.90201 | 3999 ft | 167 kts | 275° |
| 2026-05-06 14:26 | 49.00948 | 2.88427 | 3881 ft | 168 kts | 268° |
| 2026-05-06 14:26 | 49.00856 | 2.86666 | 3715 ft | 167 kts | 268° |
| 2026-05-06 14:27 | 49.00766 | 2.84919 | 3480 ft | 162 kts | 268° |
| 2026-05-06 14:27 | 49.00682 | 2.83275 | 3271 ft | 150 kts | 269° |
| 2026-05-06 14:27 | 49.00601 | 2.81724 | 3063 ft | 145 kts | 269° |
| 2026-05-06 14:27 | 49.00526 | 2.80211 | 2880 ft | 143 kts | 269° |
| 2026-05-06 14:28 | 49.00446 | 2.78710 | 2714 ft | 142 kts | 269° |
| 2026-05-06 14:28 | 49.00369 | 2.77215 | 2511 ft | 141 kts | 269° |
| 2026-05-06 14:28 | 49.00294 | 2.75732 | 2316 ft | 140 kts | 269° |
| 2026-05-06 14:28 | 49.00215 | 2.74260 | 2129 ft | 140 kts | 269° |
| 2026-05-06 14:29 | 49.00143 | 2.72787 | 1933 ft | 139 kts | 269° |
| 2026-05-06 14:29 | 49.00069 | 2.71320 | 1768 ft | 139 kts | 268° |
| 2026-05-06 14:29 | 48.99992 | 2.69855 | 1594 ft | 139 kts | 269° |
| 2026-05-06 14:29 | 48.99914 | 2.68398 | 1412 ft | 138 kts | 268° |
| 2026-05-06 14:30 | 48.99838 | 2.66943 | 1218 ft | 137 kts | 268° |
| 2026-05-06 14:30 | 48.99760 | 2.65501 | 1043 ft | 137 kts | 268° |
| 2026-05-06 14:30 | 48.99685 | 2.64054 | 858 ft | 137 kts | 268° |
| 2026-05-06 14:30 | 48.99611 | 2.62613 | 685 ft | 136 kts | 268° |
| 2026-05-06 14:31 | 48.99536 | 2.61177 | 517 ft | 136 kts | 268° |
| 2026-05-06 14:31 | 48.99456 | 2.59751 | 364 ft | 132 kts | 269° |
| 2026-05-06 14:31 | 48.99398 | 2.58531 | 357 ft | 82 kts | 265° |
| 2026-05-06 14:31 | 48.99369 | 2.57987 | 359 ft | 41 kts | 266° |
| 2026-05-06 14:32 | 48.99349 | 2.57566 | 352 ft | 40 kts | 268° |
| 2026-05-06 14:32 | 48.99403 | 2.57169 | 355 ft | 37 kts | 288° |
| 2026-05-06 14:32 | 48.99458 | 2.56875 | 355 ft | 20 kts | 284° |
| 2026-05-06 14:32 | 48.99486 | 2.56672 | 358 ft | 18 kts | 314° |
| 2026-05-06 14:33 | 48.99607 | 2.56623 | 355 ft | 18 kts | 356° |
| 2026-05-06 14:33 | 48.99736 | 2.56608 | 354 ft | 19 kts | 355° |
| 2026-05-06 14:33 | 48.99824 | 2.56498 | 358 ft | 18 kts | 281° |
| 2026-05-06 14:33 | 48.99815 | 2.56313 | 361 ft | 18 kts | 264° |
| 2026-05-06 14:34 | 48.99803 | 2.56125 | 357 ft | 18 kts | 266° |
| 2026-05-06 14:34 | 48.99800 | 2.55933 | 356 ft | 18 kts | 278° |
| 2026-05-06 14:34 | 48.99832 | 2.55743 | 354 ft | 19 kts | 285° |
| 2026-05-06 14:34 | 48.99901 | 2.55578 | 360 ft | 19 kts | 323° |
| 2026-05-06 14:35 | 49.00026 | 2.55510 | 355 ft | 19 kts | 345° |
| 2026-05-06 14:35 | 49.00180 | 2.55445 | 355 ft | 27 kts | 344° |
| 2026-05-06 14:35 | 49.00361 | 2.55364 | 360 ft | 27 kts | 343° |
| 2026-05-06 14:35 | 49.00544 | 2.55286 | 355 ft | 26 kts | 344° |
| 2026-05-06 14:36 | 49.00675 | 2.55264 | 355 ft | 17 kts | 31° |
| 2026-05-06 14:36 | 49.00725 | 2.55427 | 361 ft | 17 kts | 84° |
| 2026-05-06 14:36 | 49.00738 | 2.55610 | 355 ft | 18 kts | 83° |
| 2026-05-06 14:36 | 49.00753 | 2.55795 | 358 ft | 18 kts | 82° |
| 2026-05-06 14:37 | 49.00776 | 2.55980 | 359 ft | 18 kts | 79° |
| 2026-05-06 14:37 | 49.00794 | 2.56168 | 358 ft | 19 kts | 87° |
| 2026-05-06 14:37 | 49.00811 | 2.56413 | 358 ft | 26 kts | 82° |
| 2026-05-06 14:37 | 49.00831 | 2.56697 | 355 ft | 28 kts | 86° |
| 2026-05-06 14:38 | 49.00848 | 2.57004 | 357 ft | 29 kts | 85° |
| 2026-05-06 14:38 | 49.00864 | 2.57304 | 361 ft | 27 kts | 85° |
| 2026-05-06 14:38 | 49.00880 | 2.57571 | 357 ft | 24 kts | 86° |
| 2026-05-06 14:38 | 49.00853 | 2.57723 | 359 ft | 11 kts | 151° |
| 2026-05-06 14:39 | 49.00808 | 2.57792 | 358 ft | 9 kts | 111° |
| 2026-05-06 14:39 | 49.00807 | 2.57916 | 359 ft | 14 kts | 85° |
| 2026-05-06 14:39 | 49.00807 | 2.58055 | 358 ft | 12 kts | 108° |
| 2026-05-06 14:39 | 49.00757 | 2.58116 | 357 ft | 7 kts | 191° |
| 2026-05-06 14:40 | 49.00743 | 2.58060 | 360 ft | 5 kts | 264° |
| 2026-05-06 14:40 | 49.00731 | 2.58029 | 357 ft | 4 kts | 232° |
| 2026-05-06 14:40 | 49.00720 | 2.58008 | 364 ft | 1 kts | 230° |